Pourquoi Pas — FMCY — position and weather

sailwx.info

Track history (hours):
 
Tides and Currents Weather Stations Pressure Air Temp Water Temp Dewpoint Dewpoint Depression Visibility Wind Speed Wind Dir Waves Ship Positions

Oceanographic research ship Pourquoi Pas (France)

Last reported at 2017-Apr-27 16:29 UTC. Time now 2017-Apr-27 16:54 UTC.
Position N 37°44' W 025°40'.

Length 108 m; beam 20 m.

Type: Dredging. MMSI: 228207600.

Date/timePositionNaut miles runAvg speedWind from/ knotsBaromVisibWave heightAir tempDewpointWater temp
2017-Apr-27 16:29N 37°44' W 025°40'0 0.0
2017-Apr-27 15:59N 37°44' W 025°40'0 0.0
2017-Apr-27 15:29N 37°44' W 025°40'0 0.0
2017-Apr-27 14:59N 37°44' W 025°40'0 0.0
2017-Apr-27 13:59N 37°44' W 025°40'0 0.0
2017-Apr-27 13:29N 37°44' W 025°40'0 0.0
2017-Apr-27 12:59N 37°44' W 025°40'0 0.0
2017-Apr-27 12:29N 37°44' W 025°40'0 0.0
2017-Apr-27 11:59N 37°44' W 025°40'0 0.0
2017-Apr-27 11:29N 37°44' W 025°40'0 0.0
2017-Apr-27 10:59N 37°44' W 025°40'0 0.0
2017-Apr-27 10:29N 37°44' W 025°40'0 0.0
2017-Apr-27 09:59N 37°44' W 025°40'0 0.0
2017-Apr-27 09:29N 37°44' W 025°40'0 0.0
2017-Apr-27 08:59N 37°44' W 025°40'0 0.0
2017-Apr-27 08:29N 37°44' W 025°40'0 0.0
2017-Apr-27 07:59N 37°44' W 025°40'0 0.0
2017-Apr-27 07:29N 37°44' W 025°40'0 0.0
2017-Apr-27 06:59N 37°44' W 025°40'0 0.0
2017-Apr-27 06:29N 37°44' W 025°40'0 0.0
2017-Apr-27 05:59N 37°44' W 025°40'0 0.0
2017-Apr-27 05:29N 37°44' W 025°40'0 0.0
2017-Apr-27 04:59N 37°44' W 025°40'0 0.0
2017-Apr-27 04:29N 37°44' W 025°40'0 0.0
2017-Apr-27 03:59N 37°44' W 025°40'0 0.0
2017-Apr-27 03:29N 37°44' W 025°40'0 0.0
2017-Apr-27 02:59N 37°44' W 025°40'0 0.0
2017-Apr-27 02:29N 37°44' W 025°40'0 0.0
2017-Apr-27 01:59N 37°44' W 025°40'0 0.0
2017-Apr-27 01:29N 37°44' W 025°40'0 0.0
2017-Apr-27 00:59N 37°44' W 025°40'0 0.0
2017-Apr-27 00:29N 37°44' W 025°40'0 0.0
2017-Apr-26 23:59N 37°44' W 025°40'0 0.0
2017-Apr-26 23:29N 37°44' W 025°40'0 0.0
2017-Apr-26 22:59N 37°44' W 025°40'0 0.0
2017-Apr-26 22:29N 37°44' W 025°40'0 0.0
2017-Apr-26 21:59N 37°44' W 025°40'0 0.0
2017-Apr-26 21:29N 37°44' W 025°40'0 0.0
2017-Apr-26 20:59N 37°44' W 025°40'0 0.0
2017-Apr-26 20:29N 37°44' W 025°40'0 0.0
2017-Apr-26 19:59N 37°44' W 025°40'0 0.0
2017-Apr-26 19:29N 37°44' W 025°40'0 0.0
2017-Apr-26 18:59N 37°44' W 025°40'0 0.0
2017-Apr-26 18:29N 37°44' W 025°40'0 0.0
2017-Apr-26 18:00N 37°44' W 025°40'0 0.0
2017-Apr-26 17:31N 37°44' W 025°40'0 0.0
2017-Apr-26 17:00N 37°44' W 025°40'1 1.7
2017-Apr-26 16:30N 37°43' W 025°39'5 9.5
2017-Apr-26 16:00N 37°40' W 025°43'611.4
2017-Apr-26 15:31N 37°36' W 025°48'611.3
2017-Apr-26 15:00N 37°32' W 025°54'510.6
2017-Apr-26 14:31N 37°29' W 025°59'1010.4
2017-Apr-26 13:30N 37°23' W 026°09'510.8
2017-Apr-26 13:00N 37°20' W 026°15'510.7
2017-Apr-26 12:30N 37°17' W 026°21'5 9.9
2017-Apr-26 12:01N 37°15' W 026°26'5 9.1
2017-Apr-26 11:31N 37°12' W 026°31'5 9.6
2017-Apr-26 11:01N 37°10' W 026°36'5 9.8
2017-Apr-26 10:30N 37°07' W 026°41'5 9.7
2017-Apr-26 10:00N 37°05' W 026°47'510.1
2017-Apr-26 09:30N 37°02' W 026°52'510.5
2017-Apr-26 09:00N 36°59' W 026°58'510.7
2017-Apr-26 08:30N 36°56' W 027°04'  
Track history (hours):
 
Tides and Currents Weather Stations Pressure Air Temp Water Temp Dewpoint Dewpoint Depression Visibility Wind Speed Wind Dir Waves Ship Positions

Oceanographic research ship Pourquoi Pas (France)

Last reported at 2017-Apr-27 16:29 UTC. Time now 2017-Apr-27 16:54 UTC.
Position N 37°44' W 025°40'.

Length 108 m; beam 20 m.

Type: Dredging. MMSI: 228207600.

Date/timePositionNaut miles runAvg speedWind from/ knotsBaromVisibWave heightAir tempDewpointWater temp
2017-Apr-27 16:29N 37°44' W 025°40'0 0.0
2017-Apr-27 15:59N 37°44' W 025°40'0 0.0
2017-Apr-27 15:29N 37°44' W 025°40'0 0.0
2017-Apr-27 14:59N 37°44' W 025°40'0 0.0
2017-Apr-27 13:59N 37°44' W 025°40'0 0.0
2017-Apr-27 13:29N 37°44' W 025°40'0 0.0
2017-Apr-27 12:59N 37°44' W 025°40'0 0.0
2017-Apr-27 12:29N 37°44' W 025°40'0 0.0
2017-Apr-27 11:59N 37°44' W 025°40'0 0.0
2017-Apr-27 11:29N 37°44' W 025°40'0 0.0
2017-Apr-27 10:59N 37°44' W 025°40'0 0.0
2017-Apr-27 10:29N 37°44' W 025°40'0 0.0
2017-Apr-27 09:59N 37°44' W 025°40'0 0.0
2017-Apr-27 09:29N 37°44' W 025°40'0 0.0
2017-Apr-27 08:59N 37°44' W 025°40'0 0.0
2017-Apr-27 08:29N 37°44' W 025°40'0 0.0
2017-Apr-27 07:59N 37°44' W 025°40'0 0.0
2017-Apr-27 07:29N 37°44' W 025°40'0 0.0
2017-Apr-27 06:59N 37°44' W 025°40'0 0.0
2017-Apr-27 06:29N 37°44' W 025°40'0 0.0
2017-Apr-27 05:59N 37°44' W 025°40'0 0.0
2017-Apr-27 05:29N 37°44' W 025°40'0 0.0
2017-Apr-27 04:59N 37°44' W 025°40'0 0.0
2017-Apr-27 04:29N 37°44' W 025°40'0 0.0
2017-Apr-27 03:59N 37°44' W 025°40'0 0.0
2017-Apr-27 03:29N 37°44' W 025°40'0 0.0
2017-Apr-27 02:59N 37°44' W 025°40'0 0.0
2017-Apr-27 02:29N 37°44' W 025°40'0 0.0
2017-Apr-27 01:59N 37°44' W 025°40'0 0.0
2017-Apr-27 01:29N 37°44' W 025°40'0 0.0
2017-Apr-27 00:59N 37°44' W 025°40'0 0.0
2017-Apr-27 00:29N 37°44' W 025°40'0 0.0
2017-Apr-26 23:59N 37°44' W 025°40'0 0.0
2017-Apr-26 23:29N 37°44' W 025°40'0 0.0
2017-Apr-26 22:59N 37°44' W 025°40'0 0.0
2017-Apr-26 22:29N 37°44' W 025°40'0 0.0
2017-Apr-26 21:59N 37°44' W 025°40'0 0.0
2017-Apr-26 21:29N 37°44' W 025°40'0 0.0
2017-Apr-26 20:59N 37°44' W 025°40'0 0.0
2017-Apr-26 20:29N 37°44' W 025°40'0 0.0
2017-Apr-26 19:59N 37°44' W 025°40'0 0.0
2017-Apr-26 19:29N 37°44' W 025°40'0 0.0
2017-Apr-26 18:59N 37°44' W 025°40'0 0.0
2017-Apr-26 18:29N 37°44' W 025°40'0 0.0
2017-Apr-26 18:00N 37°44' W 025°40'0 0.0
2017-Apr-26 17:31N 37°44' W 025°40'0 0.0
2017-Apr-26 17:00N 37°44' W 025°40'1 1.7
2017-Apr-26 16:30N 37°43' W 025°39'5 9.5
2017-Apr-26 16:00N 37°40' W 025°43'611.4
2017-Apr-26 15:31N 37°36' W 025°48'611.3
2017-Apr-26 15:00N 37°32' W 025°54'510.6
2017-Apr-26 14:31N 37°29' W 025°59'1010.4
2017-Apr-26 13:30N 37°23' W 026°09'510.8
2017-Apr-26 13:00N 37°20' W 026°15'510.7
2017-Apr-26 12:30N 37°17' W 026°21'5 9.9
2017-Apr-26 12:01N 37°15' W 026°26'5 9.1
2017-Apr-26 11:31N 37°12' W 026°31'5 9.6
2017-Apr-26 11:01N 37°10' W 026°36'5 9.8
2017-Apr-26 10:30N 37°07' W 026°41'5 9.7
2017-Apr-26 10:00N 37°05' W 026°47'510.1
2017-Apr-26 09:30N 37°02' W 026°52'510.5
2017-Apr-26 09:00N 36°59' W 026°58'510.7
2017-Apr-26 08:30N 36°56' W 027°04'  

Dump ship's entire track history